Hovedside
METAR-TAF:

METAR-TAF

Lufthavner :

Wallis, Frankrike

breddegrad: 13-14S, lengdegrad: 176-10W, høyde over havet: 23 m

METAR: fraværende

Tid: 19:05 (07:05 UTC)

Varsel

Denne rapporten ble laget for 2 timer og 5 minutter siden, klokken 05:00 UTC
Varsel gyldig fra 25. klokken 06 UTC til 26. klokken 06 UTC
Vind 8 kt fra Øst
Sikt 10 km eller mer
Spredte skyer i en høyde av 1800 ft
Brutte skyer i en høyde av 3000 ft
Midlertidig
fra 25. klokken 06 UTC til 26. klokken 06 UTC
Sikt: 4000 m
Brutte skyer i en høyde av 1400 ft
Få skyer i en høyde av 2000 ft, Bygeskyer.
regnbyger
Sannsynlighet 40% :
Midlertidig
fra 25. klokken 08 UTC til 25. klokken 15 UTC
Sikt: 2000 m
Brutte skyer i en høyde av 1000 ft
Spredte skyer i en høyde av 1800 ft, Bygeskyer.
torden, regn

TAF: NLWW 250500Z 2506/2606 09008KT 9999 SCT018 BKN030 TEMPO 2506/2606 4000 SHRA BKN014 FEW020CB PROB40 TEMPO 2508/2515 2000 TSRA BKN010 SCT018CB

Værobservasjoner og værvarsel for over 4000 flyplasser (METAR- og TAF-rapporter).

Tilgjengelige stasjoner er representert av de røde og gule prikkene på kartet.

Hold musepekeren over prikken for å se navnet på stasjonen.

Klikk så for å se værobservasjoner og -varsler.

For å forandre kartet kan du klikke på den grønne knappen med svart kryss for å zoome inn, på den grønne knappen med strek for å zoome ut, eller på de grønne pilene for å se tilstøtende kart.


METAR-TAF: